Latest Weather Observations for Biloela

IDQ60801

Issued at 7:35 pm EST Friday 29 August 2014 (issued every 30 minutes, with the page automatically refreshed every 10 minutes)

About weather observations | Map of weather stations | Latest weather observations for QLD | Other Formats
Station Details ID: 039089 Name: THANGOOL AIRPORT Lat: -24.49 Lon: 150.57 Height: 193.1 m
Data from the previous 72 hours. | See also: Recent months at Biloela
Date/Time
EST
Temp
°C
App
Temp
°C
Dew
Point
Rel
Hum
%
Delta-T
°C
Wind Press
QNH
hPa
Press
MSL
hPa
Rain
since 9 am
mm
Dir
 
Spd
km/h
Gust
km/h
Spd
kts
Gust
kts
29/07:30pm 15.3 12.8 4.7 49 5.0 ESE 7 9 4 5 1020.0 - 0.0
29/07:00pm 16.3 13.3 4.0 44 5.8 E 9 9 5 5 1019.6 - 0.0
29/06:30pm 17.8 15.2 4.0 40 6.6 E 7 9 4 5 1019.3 - 0.0
29/06:00pm 19.5 16.7 3.2 34 7.7 ESE 7 11 4 6 1019.0 1018.8 0.0
29/05:30pm 22.0 18.8 3.2 29 9.1 ESE 9 13 5 7 1018.8 - 0.0
29/05:00pm 23.4 20.4 3.9 28 9.6 ESE 9 17 5 9 1018.5 - 0.0
29/04:30pm 23.8 20.2 3.2 26 10.1 ESE 11 17 6 9 1018.5 - 0.0
29/04:00pm 24.1 20.9 2.9 25 10.3 ESE 9 17 5 9 1018.5 - 0.0
29/03:30pm 24.4 20.6 1.9 23 10.8 ESE 11 17 6 9 1018.6 - 0.0
29/03:00pm 24.5 20.5 2.6 24 10.6 SE 13 28 7 15 1018.7 1018.5 0.0
29/02:30pm 24.5 20.5 2.6 24 10.6 SSE 13 28 7 15 1019.0 - 0.0
29/02:00pm 23.8 19.5 0.8 22 10.7 SSE 13 20 7 11 1019.2 - 0.0
29/01:30pm 24.9 21.7 3.0 24 10.7 SSE 9 17 5 9 1019.6 - 0.0
29/01:00pm 24.2 20.4 4.0 27 10.0 SE 13 26 7 14 1019.9 - 0.0
29/12:30pm 23.0 17.7 1.9 25 10.0 S 19 28 10 15 1020.4 - 0.0
29/12:00pm 23.7 19.9 6.0 32 9.1 ESE 15 22 8 12 1021.0 1020.8 0.0
29/11:30am 22.5 18.9 5.0 32 8.8 SSE 13 24 7 13 1021.8 - 0.0
29/11:00am 22.8 19.1 6.1 34 8.6 ESE 15 24 8 13 1022.3 - 0.0
29/10:30am 20.8 17.3 5.6 37 7.6 S 13 20 7 11 1022.7 - 0.0
29/10:00am 20.0 16.2 6.0 40 7.0 ESE 15 24 8 13 1022.9 - 0.0
29/09:30am 20.5 17.0 7.2 42 6.8 ESE 15 26 8 14 1023.1 - 0.0
29/09:00am 19.0 15.5 7.1 46 6.0 ESE 15 28 8 15 1023.1 1023.0 0.0
29/08:30am 16.9 15.8 8.3 57 4.4 ESE 4 9 2 5 1023.3 - 0.0
29/08:00am 13.6 11.9 8.2 70 2.7 S 7 9 4 5 1023.1 - 0.0
29/07:30am 11.5 9.8 7.4 76 2.0 E 6 7 3 4 1022.9 - 0.0
29/07:00am 8.8 6.8 6.4 85 1.1 ESE 6 7 3 4 1022.6 - 0.0
29/06:30am 8.1 6.2 6.9 92 0.6 ESE 6 7 3 4 1022.3 - 0.0
29/06:00am 7.3 4.6 5.6 89 0.8 E 9 9 5 5 1022.1 1022.0 0.0
29/05:30am 6.7 4.4 4.7 87 0.9 SE 6 7 3 4 1021.8 - 0.0
29/05:00am 7.0 4.8 5.3 89 0.8 SSE 6 9 3 5 1021.5 - 0.0
29/04:30am 8.5 6.3 6.1 85 1.1 ESE 7 9 4 5 1021.1 - 0.0
29/04:00am 8.2 6.2 6.2 87 0.9 E 6 9 3 5 1021.0 - 0.0
29/03:30am 7.3 5.4 5.1 86 1.0 SE 4 6 2 3 1020.9 - 0.0
29/03:00am 7.8 5.6 5.3 84 1.1 E 6 7 3 4 1020.7 1020.5 0.0
29/02:30am 9.9 7.4 6.4 79 1.6 E 9 11 5 6 1020.7 - 0.0
29/02:00am 9.9 7.3 6.2 78 1.7 E 9 11 5 6 1020.8 - 0.0
29/01:30am 8.9 6.7 5.5 79 1.6 ESE 6 7 3 4 1021.0 - 0.0
29/01:00am 10.7 8.2 6.5 75 2.0 E 9 11 5 6 1021.0 - 0.0
29/12:30am 10.1 7.5 5.9 75 1.9 E 9 11 5 6 1021.0 - 0.0
29/12:00am 11.0 8.7 5.7 70 2.5 E 7 9 4 5 1021.0 1020.8 0.0
 
Date/Time
EST
Temp
°C
App
Temp
°C
Dew
Point
Rel
Hum
%
Delta-T
°C
Wind Press
QNH
hPa
Press
MSL
hPa
Rain
since 9 am
mm
Dir
 
Spd
km/h
Gust
km/h
Spd
kts
Gust
kts
28/11:30pm 14.1 12.1 6.9 62 3.5 SE 7 9 4 5 1020.9 - 0.0
28/11:00pm 12.8 10.7 6.6 66 3.0 E 7 13 4 7 1020.9 - 0.0
28/10:30pm 12.5 11.2 5.9 64 3.1 ESE 2 7 1 4 1020.8 - 0.0
28/10:00pm 13.8 11.8 6.2 60 3.7 E 6 7 3 4 1020.7 - 0.0
28/09:30pm 14.7 12.5 6.3 57 4.1 E 7 7 4 4 1020.8 - 0.0
28/09:00pm 14.7 12.7 6.3 57 4.1 ENE 6 7 3 4 1020.5 1020.3 0.0
28/08:30pm 13.5 11.4 5.7 59 3.7 E 6 7 3 4 1020.2 - 0.0
28/08:00pm 13.7 11.4 5.8 59 3.8 E 7 11 4 6 1020.0 - 0.0
28/07:30pm 15.6 13.5 5.8 52 4.8 E 6 7 3 4 1019.5 - 0.0
28/07:00pm 16.9 14.8 5.8 48 5.4 SE 6 9 3 5 1019.0 - 0.0
28/06:30pm 18.9 16.9 6.1 43 6.4 SE 6 9 3 5 1018.7 - 0.0
28/06:00pm 19.8 17.6 5.5 39 7.1 SE 6 9 3 5 1018.3 1018.1 0.0
28/05:30pm 22.3 19.6 5.7 34 8.4 SSE 9 17 5 9 1017.7 - 0.0
28/05:00pm 22.8 20.1 5.7 33 8.7 S 9 17 5 9 1017.3 - 0.0
28/04:30pm 24.5 21.6 6.3 31 9.5 SSE 11 17 6 9 1017.0 - 0.0
28/04:00pm 24.6 20.8 5.9 30 9.7 SE 15 22 8 12 1016.6 - 0.0
28/03:30pm 25.2 22.0 6.9 31 9.7 S 13 26 7 14 1016.3 - 0.0
28/03:00pm 25.2 20.9 6.9 31 9.6 SSW 19 30 10 16 1016.3 1016.1 0.0
28/02:30pm 25.5 22.4 7.1 31 9.8 S 13 24 7 13 1016.4 - 0.0
28/02:00pm 25.1 20.8 7.7 33 9.3 SSW 20 30 11 16 1016.5 - 0.0
28/01:30pm 25.0 22.0 7.6 33 9.3 SSE 13 20 7 11 1016.7 - 0.0
28/01:00pm 24.3 21.0 7.9 35 8.8 S 15 26 8 14 1016.8 - 0.0
28/12:30pm 23.0 19.8 6.7 35 8.5 SSE 13 26 7 14 1017.2 - 0.0
28/12:00pm 23.2 19.1 7.7 37 8.2 SE 19 30 10 16 1017.7 1017.6 0.0
28/11:30am 22.2 18.4 7.6 39 7.7 SSE 17 33 9 18 1018.2 - 0.0
28/11:00am 21.9 18.5 7.7 40 7.5 SE 15 26 8 14 1018.5 - 0.0
28/10:30am 20.2 16.7 7.2 43 6.7 SSE 15 24 8 13 1018.8 - 0.0
28/10:00am 19.8 16.5 7.9 46 6.2 SSE 15 28 8 15 1019.1 - 0.0
28/09:30am 18.7 15.0 8.1 50 5.5 SSE 17 28 9 15 1019.3 - 0.0
28/09:00am 18.1 14.9 8.4 53 5.0 SSE 15 26 8 14 1019.2 1019.0 0.0
28/08:30am 16.6 13.7 8.3 58 4.3 SSE 13 20 7 11 1019.0 - 0.0
28/08:00am 14.9 11.9 7.7 62 3.6 S 13 17 7 9 1019.1 - 0.0
28/07:30am 14.2 12.0 7.9 66 3.2 S 9 19 5 10 1018.8 - 0.0
28/07:00am 12.9 10.6 7.6 70 2.6 SSW 9 15 5 8 1018.5 - 0.0
28/06:30am 12.4 9.6 7.1 70 2.6 SSW 11 17 6 9 1018.1 - 0.0
28/06:00am 12.8 9.7 7.3 69 2.7 SSW 13 20 7 11 1017.9 1017.7 0.0
28/05:30am 11.5 9.1 6.8 73 2.3 SSW 9 15 5 8 1017.6 - 0.0
28/05:00am 10.3 8.8 7.0 80 1.6 S 4 9 2 5 1017.5 - 0.0
28/04:30am 9.3 7.1 6.2 81 1.4 E 7 9 4 5 1017.5 - 0.0
28/04:00am 8.9 6.7 5.3 78 1.6 ESE 6 9 3 5 1017.6 - 0.0
28/03:30am 8.7 5.8 4.5 75 1.9 E 9 11 5 6 1017.6 - 0.0
28/03:00am 8.7 5.4 4.7 76 1.8 E 11 15 6 8 1017.6 1017.5 0.0
28/02:30am 8.0 5.0 2.0 66 2.5 SSE 7 13 4 7 1017.7 - 0.0
28/02:00am 11.5 8.8 5.6 67 2.8 SSW 9 15 5 8 1018.1 - 0.0
28/01:30am 11.5 8.5 6.0 69 2.6 SSW 11 17 6 9 1018.3 - 0.0
28/01:00am 7.2 4.5 2.7 73 1.9 E 6 7 3 4 1018.6 - 0.0
28/12:30am 8.4 6.2 3.1 69 2.3 SSE 4 7 2 4 1018.5 - 0.0
28/12:00am 8.6 7.1 2.8 67 2.5 CALM 0 0 0 0 1018.6 1018.4 0.0
 
Date/Time
EST
Temp
°C
App
Temp
°C
Dew
Point
Rel
Hum
%
Delta-T
°C
Wind Press
QNH
hPa
Press
MSL
hPa
Rain
since 9 am
mm
Dir
 
Spd
km/h
Gust
km/h
Spd
kts
Gust
kts
27/11:30pm 9.0 6.4 3.0 66 2.6 SSW 6 7 3 4 1018.6 - 0.0
27/11:00pm 9.1 7.1 2.2 62 2.9 S 2 7 1 4 1018.8 - 0.0
27/10:30pm 10.3 8.7 2.4 58 3.4 CALM 0 0 0 0 1018.7 - 0.0
27/10:00pm 11.7 9.7 2.2 52 4.1 SSE 2 7 1 4 1018.4 - 0.0
27/09:30pm 12.8 9.8 1.8 47 4.8 S 7 11 4 6 1018.3 - 0.0
27/09:00pm 14.4 10.5 1.3 41 5.7 SSW 11 15 6 8 1018.2 1018.0 0.0
27/08:30pm 13.4 8.7 0.8 42 5.4 SSW 15 26 8 14 1017.9 - 0.0
27/08:00pm 12.2 9.0 0.9 46 4.8 WSW 7 9 4 5 1017.4 - 0.0
27/07:30pm 11.8 9.8 -0.4 43 5.0 CALM 0 0 0 0 1017.2 - 0.0
27/07:00pm 13.4 11.3 -1.0 37 5.9 CALM 0 0 0 0 1016.8 - 0.0
27/06:30pm 16.5 13.1 -0.7 31 7.3 SSW 7 13 4 7 1016.4 - 0.0
27/06:00pm 18.0 13.4 -0.8 28 8.1 SSW 13 24 7 13 1016.1 1015.9 0.0
27/05:30pm 19.6 14.6 -0.9 25 9.0 SSW 15 28 8 15 1015.6 - 0.0
27/05:00pm 20.6 15.7 -0.7 24 9.4 SSW 15 30 8 16 1015.1 - 0.0
27/04:30pm 21.2 15.9 -0.7 23 9.7 SW 17 30 9 16 1014.9 - 0.0
27/04:00pm 21.7 16.3 -1.6 21 10.2 SW 17 28 9 15 1014.5 - 0.0
27/03:30pm 22.0 16.2 -1.3 21 10.3 W 19 30 10 16 1014.4 - 0.0
27/03:00pm 22.6 17.7 -0.2 22 10.3 SW 15 20 8 11 1014.3 1014.1 0.0
27/02:30pm 22.0 16.2 -1.3 21 10.3 SSW 19 22 10 12 1014.5 - 0.0
27/02:00pm 21.6 15.7 -1.0 22 10.0 W 20 35 11 19 1014.8 - 0.0
27/01:30pm 21.8 16.6 -0.2 23 9.9 SW 17 24 9 13 1015.0 - 0.0
27/01:00pm 21.9 15.9 -1.4 21 10.3 SW 20 32 11 17 1015.3 - 0.0
27/12:30pm 21.8 15.9 -0.8 22 10.1 SW 20 35 11 19 1015.5 - 0.0
27/12:00pm 21.1 16.5 -0.8 23 9.7 SW 13 24 7 13 1015.9 1015.7 0.0
27/11:30am 20.8 16.4 0.1 25 9.3 SSW 13 24 7 13 1016.5 - 0.0
27/11:00am 20.7 16.7 0.5 26 9.2 S 11 15 6 8 1017.1 - 0.0
27/10:30am 20.1 15.3 0.5 27 8.8 SSW 15 24 8 13 1017.6 - 0.0
27/10:00am 19.8 15.7 2.2 31 8.2 S 13 20 7 11 1018.0 - 0.0
27/09:30am 18.1 14.4 2.4 35 7.2 S 11 19 6 10 1018.1 - 0.0
27/09:00am 17.0 13.8 3.0 39 6.5 S 9 15 5 8 1018.1 1017.9 0.0
27/08:30am 14.4 11.6 3.2 47 5.1 SE 7 11 4 6 1018.0 - 0.0
27/08:00am 12.2 10.0 5.1 62 3.3 E 6 7 3 4 1017.9 - 0.0
27/07:30am 9.5 7.0 4.9 73 2.1 E 7 11 4 6 1017.4 - 0.0
27/07:00am 7.2 4.7 4.7 84 1.1 E 7 9 4 5 1017.2 - 0.0
27/06:30am 6.0 2.9 3.7 85 1.0 ESE 9 11 5 6 1016.8 - 0.0
27/06:00am 5.6 1.8 3.9 89 0.7 E 13 13 7 7 1016.7 1016.6 0.0
27/05:30am 4.7 2.0 2.9 88 0.7 ESE 6 7 3 4 1016.7 - 0.0
27/05:00am 5.5 3.9 2.7 82 1.2 CALM 0 4 0 2 1016.5 - 0.0
27/04:30am 5.8 3.0 3.3 84 1.1 ESE 7 9 4 5 1016.3 - 0.0
27/04:00am 7.4 4.3 3.6 77 1.6 ESE 9 11 5 6 1016.2 - 0.0
27/03:30am 7.8 4.4 4.2 78 1.6 E 11 11 6 6 1016.1 - 0.0
27/03:00am 7.1 3.7 4.1 81 1.3 E 11 15 6 8 1016.5 1016.3 0.0
27/02:30am 6.4 3.4 4.1 85 1.0 E 9 13 5 7 1016.6 - 0.0
27/02:00am 7.7 5.4 4.7 81 1.3 SSE 6 9 3 5 1016.7 - 0.0
27/01:30am 7.8 5.2 4.2 78 1.6 E 7 11 4 6 1016.9 - 0.0
27/01:00am 8.7 7.1 4.3 74 2.0 E 2 6 1 3 1017.2 - 0.0
27/12:30am 9.4 7.7 3.8 68 2.5 NE 2 9 1 5 1017.2 - 0.0
27/12:00am 9.7 8.3 3.7 66 2.6 CALM 0 0 0 0 1017.3 1017.2 0.0
 
Date/Time
EST
Temp
°C
App
Temp
°C
Dew
Point
Rel
Hum
%
Delta-T
°C
Wind Press
QNH
hPa
Press
MSL
hPa
Rain
since 9 am
mm
Dir
 
Spd
km/h
Gust
km/h
Spd
kts
Gust
kts
26/11:30pm 8.6 6.1 4.0 73 2.0 SSE 6 7 3 4 1017.0 - 0.0
26/11:00pm 9.1 6.4 3.9 70 2.3 SW 7 13 4 7 1016.8 - 0.0
26/10:30pm 10.3 7.6 3.6 63 3.0 NE 7 9 4 5 1016.7 - 0.0
26/10:00pm 10.0 7.8 3.1 62 3.0 WSW 4 7 2 4 1016.7 - 0.0
26/09:30pm 13.3 9.2 2.2 47 4.9 E 13 15 7 8 1016.6 - 0.0
26/09:00pm 13.1 9.5 2.9 50 4.6 E 11 13 6 7 1016.5 1016.3 0.0
26/08:30pm 12.5 9.7 3.2 53 4.2 E 7 9 4 5 1016.4 - 0.0
26/08:00pm 12.7 9.5 3.1 52 4.3 E 9 11 5 6 1016.2 - 0.0

Other Formats:

Comma delimited format used in spreadsheet applications
http://www.bom.gov.au/fwo/IDQ60801/IDQ60801.94376.axf

JavaScript Object Notation format (JSON) in row-major order
http://www.bom.gov.au/fwo/IDQ60801/IDQ60801.94376.json